Time;durP1;ratioP1;P1;durP2;ratioP2;P2;SDS_P1;SDS_P2;PMS_P1;PMS_P2;Temp;Humidity;BMP_temperature;BMP_pressure;BME280_temperature;BME280_humidity;BME280_pressure;Samples;Min_cycle;Max_cycle;Signal;HPM_P1;HPM_P2
2024/05/05 00:01:12;;;;;;;;;;;10.20;99.90;;;;;;5504228;26;19928;-58
2024/05/05 00:03:38;;;;;;;;;;;10.20;99.90;;;;;;5510542;25;20418;-58
2024/05/05 00:06:04;;;;;;;;;;;10.20;99.90;;;;;;5509617;26;19940;-57
2024/05/05 00:08:29;;;;;;;;;;;10.20;99.90;;;;;;5510869;26;19928;-56
2024/05/05 00:10:55;;;;;;;;;;;10.20;99.90;;;;;;5511506;25;19928;-56
2024/05/05 00:13:21;;;;;;;;;;;10.20;99.90;;;;;;5509913;26;20268;-57
2024/05/05 00:15:46;;;;;;;;;;;10.30;99.90;;;;;;5499222;26;19935;-58
2024/05/05 00:18:12;;;;;;;;;;;10.30;99.90;;;;;;5512457;26;19934;-58
2024/05/05 00:20:37;;;;;;;;;;;10.30;99.90;;;;;;5504834;26;19963;-58
2024/05/05 00:23:03;;;;;;;;;;;10.30;99.90;;;;;;5511654;25;19936;-57
2024/05/05 00:25:30;;;;;;;;;;;10.30;99.90;;;;;;5518122;26;20266;-58
2024/05/05 00:27:56;;;;;;;;;;;10.30;99.90;;;;;;5507381;26;19934;-58
2024/05/05 00:30:21;;;;;;;;;;;10.30;99.90;;;;;;5504430;25;20273;-58
2024/05/05 00:32:47;;;;;;;;;;;10.30;99.90;;;;;;5504741;26;20038;-58
2024/05/05 00:35:12;;;;;;;;;;;10.30;99.90;;;;;;5505650;25;19935;-58
2024/05/05 00:37:38;;;;;;;;;;;10.30;99.90;;;;;;5512703;26;20271;-58
2024/05/05 00:40:04;;;;;;;;;;;10.30;99.90;;;;;;5502063;26;20382;-58
2024/05/05 00:42:35;;;;;;;;;;;10.30;99.90;;;;;;5505703;25;20447;-58
2024/05/05 00:45:01;;;;;;;;;;;10.30;99.90;;;;;;5508627;26;19927;-59
2024/05/05 00:47:27;;;;;;;;;;;10.30;99.90;;;;;;5511365;26;19928;-57
2024/05/05 00:49:53;;;;;;;;;;;10.30;99.90;;;;;;5504230;26;19934;-58
2024/05/05 00:52:19;;;;;;;;;;;10.30;99.90;;;;;;5508188;25;19928;-58
2024/05/05 00:54:45;;;;;;;;;;;10.30;99.90;;;;;;5505670;26;19960;-56
2024/05/05 00:57:11;;;;;;;;;;;10.30;99.90;;;;;;5517347;26;19927;-58
2024/05/05 00:59:37;;;;;;;;;;;10.30;99.90;;;;;;5515356;26;19927;-58
2024/05/05 01:02:04;;;;;;;;;;;10.30;99.90;;;;;;5510621;25;20295;-56
2024/05/05 01:04:30;;;;;;;;;;;10.30;99.90;;;;;;5521737;26;19952;-57
2024/05/05 01:06:56;;;;;;;;;;;10.30;99.90;;;;;;5506912;26;19927;-56
2024/05/05 01:09:22;;;;;;;;;;;10.30;99.90;;;;;;5516753;26;20388;-58
2024/05/05 01:11:48;;;;;;;;;;;10.30;99.90;;;;;;5504906;25;19943;-58
2024/05/05 01:14:13;;;;;;;;;;;10.30;99.90;;;;;;5515705;26;20367;-58
2024/05/05 01:16:39;;;;;;;;;;;10.30;99.90;;;;;;5508386;26;19928;-58
2024/05/05 01:19:05;;;;;;;;;;;10.30;99.90;;;;;;5520056;25;20380;-58
2024/05/05 01:21:34;;;;;;;;;;;10.30;99.90;;;;;;5518278;26;19940;-58
2024/05/05 01:24:00;;;;;;;;;;;10.40;99.90;;;;;;5509745;26;20375;-57
2024/05/05 01:26:26;;;;;;;;;;;10.30;99.90;;;;;;5513873;26;19950;-58
2024/05/05 01:28:51;;;;;;;;;;;10.30;99.90;;;;;;5513767;25;19928;-58
2024/05/05 01:31:17;;;;;;;;;;;10.30;99.90;;;;;;5521621;26;20275;-56
2024/05/05 01:33:42;;;;;;;;;;;10.30;99.90;;;;;;5511187;26;19927;-57
2024/05/05 01:36:08;;;;;;;;;;;10.30;99.90;;;;;;5521651;26;20246;-57
2024/05/05 01:38:33;;;;;;;;;;;10.30;99.90;;;;;;5503757;25;20353;-56
2024/05/05 01:40:59;;;;;;;;;;;10.40;99.90;;;;;;5515333;26;19936;-57
2024/05/05 01:43:25;;;;;;;;;;;10.40;99.90;;;;;;5497430;25;20016;-57
2024/05/05 01:45:50;;;;;;;;;;;10.40;99.90;;;;;;5509561;26;19935;-58
2024/05/05 01:48:16;;;;;;;;;;;10.40;99.90;;;;;;5506443;26;20364;-57
2024/05/05 01:50:41;;;;;;;;;;;10.40;99.90;;;;;;5513018;25;19927;-58
2024/05/05 01:53:07;;;;;;;;;;;10.40;99.90;;;;;;5497559;26;20342;-59
2024/05/05 01:55:32;;;;;;;;;;;10.40;99.90;;;;;;5509717;26;19959;-59
2024/05/05 01:57:59;;;;;;;;;;;10.40;99.90;;;;;;5514412;25;20402;-58
2024/05/05 02:00:25;;;;;;;;;;;10.40;99.90;;;;;;5507191;26;19980;-59
2024/05/05 02:02:50;;;;;;;;;;;10.40;99.90;;;;;;5506727;26;19955;-58
2024/05/05 02:05:17;;;;;;;;;;;10.40;99.90;;;;;;5501567;26;20307;-59
2024/05/05 02:07:43;;;;;;;;;;;10.40;99.90;;;;;;5505193;25;19957;-59
2024/05/05 02:10:09;;;;;;;;;;;10.50;99.90;;;;;;5508608;26;19943;-59
2024/05/05 02:12:34;;;;;;;;;;;10.40;99.90;;;;;;5502485;26;20021;-58
2024/05/05 02:15:00;;;;;;;;;;;10.50;99.90;;;;;;5506440;26;19931;-59
2024/05/05 02:17:25;;;;;;;;;;;10.50;99.90;;;;;;5509588;25;19972;-58
2024/05/05 02:19:51;;;;;;;;;;;10.50;99.90;;;;;;5507924;26;19928;-57
2024/05/05 02:22:17;;;;;;;;;;;10.50;99.90;;;;;;5505807;26;19959;-59
2024/05/05 02:24:43;;;;;;;;;;;10.50;99.90;;;;;;5516081;26;19943;-59
2024/05/05 02:27:08;;;;;;;;;;;10.50;99.90;;;;;;5518522;25;20263;-58
2024/05/05 02:29:34;;;;;;;;;;;10.50;99.90;;;;;;5509098;26;19929;-57
2024/05/05 02:32:00;;;;;;;;;;;10.50;99.90;;;;;;5505649;26;19935;-58
2024/05/05 02:34:26;;;;;;;;;;;10.50;99.90;;;;;;5501085;25;19934;-58
2024/05/05 02:36:52;;;;;;;;;;;10.50;99.90;;;;;;5520475;26;19959;-58
2024/05/05 02:39:17;;;;;;;;;;;10.50;99.90;;;;;;5517038;26;19934;-57
2024/05/05 02:41:43;;;;;;;;;;;10.50;99.90;;;;;;5509823;25;20008;-58
2024/05/05 02:44:09;;;;;;;;;;;10.60;99.90;;;;;;5507623;26;20364;-58
2024/05/05 02:46:34;;;;;;;;;;;10.50;99.90;;;;;;5515988;26;19928;-57
2024/05/05 02:49:00;;;;;;;;;;;10.50;99.90;;;;;;5514241;26;19994;-58
2024/05/05 02:51:25;;;;;;;;;;;10.60;99.90;;;;;;5503711;25;19992;-59
2024/05/05 02:53:51;;;;;;;;;;;10.60;99.90;;;;;;5512190;26;19937;-59
2024/05/05 02:56:17;;;;;;;;;;;10.60;99.90;;;;;;5520230;26;19931;-58
2024/05/05 02:58:43;;;;;;;;;;;10.60;99.90;;;;;;5513963;26;19928;-57
2024/05/05 03:01:08;;;;;;;;;;;10.60;99.90;;;;;;5512429;25;19938;-58
2024/05/05 03:03:34;;;;;;;;;;;10.60;99.90;;;;;;5513929;26;20417;-58
2024/05/05 03:06:01;;;;;;;;;;;10.70;99.90;;;;;;5517160;26;19939;-58
2024/05/05 03:08:28;;;;;;;;;;;10.70;99.90;;;;;;5495601;25;20382;-57
2024/05/05 03:10:53;;;;;;;;;;;10.70;99.90;;;;;;5519094;26;20274;-58
2024/05/05 03:13:19;;;;;;;;;;;10.70;99.90;;;;;;5513722;26;19955;-58
2024/05/05 03:15:47;;;;;;;;;;;10.70;99.90;;;;;;5515583;25;19963;-58
2024/05/05 03:18:13;;;;;;;;;;;10.70;99.90;;;;;;5516969;26;19928;-58
2024/05/05 03:20:38;;;;;;;;;;;10.70;99.90;;;;;;5509743;26;19927;-58
2024/05/05 03:23:05;;;;;;;;;;;10.70;99.90;;;;;;5513323;26;20619;-59
2024/05/05 03:25:31;;;;;;;;;;;10.70;99.90;;;;;;5512306;25;20536;-58
2024/05/05 03:27:56;;;;;;;;;;;10.70;99.90;;;;;;5507183;26;19934;-58
2024/05/05 03:30:22;;;;;;;;;;;10.70;99.90;;;;;;5511465;26;19951;-58
2024/05/05 03:32:48;;;;;;;;;;;10.70;99.90;;;;;;5518616;25;19928;-58
2024/05/05 03:35:15;;;;;;;;;;;10.70;99.90;;;;;;5507784;26;19950;-58
2024/05/05 03:37:40;;;;;;;;;;;10.70;99.90;;;;;;5520040;26;19939;-58
2024/05/05 03:40:06;;;;;;;;;;;10.70;99.90;;;;;;5510793;26;19934;-59
2024/05/05 03:42:34;;;;;;;;;;;10.70;99.90;;;;;;5517000;25;19995;-59
2024/05/05 03:44:59;;;;;;;;;;;10.70;99.90;;;;;;5507159;26;19967;-58
2024/05/05 03:47:25;;;;;;;;;;;10.70;99.90;;;;;;5512361;26;19927;-58
2024/05/05 03:50:00;;;;;;;;;;;10.70;99.90;;;;;;5514474;26;20455;-59
2024/05/05 03:52:26;;;;;;;;;;;10.80;99.90;;;;;;5510087;25;19939;-59
2024/05/05 03:54:52;;;;;;;;;;;10.80;99.90;;;;;;5511505;26;20268;-59
2024/05/05 03:57:17;;;;;;;;;;;10.80;99.90;;;;;;5519236;26;20405;-57
2024/05/05 03:59:43;;;;;;;;;;;10.80;99.90;;;;;;5517405;25;19928;-59
2024/05/05 04:02:08;;;;;;;;;;;10.70;99.90;;;;;;5516853;26;19939;-58
2024/05/05 04:04:34;;;;;;;;;;;10.70;99.90;;;;;;5511431;26;19927;-58
2024/05/05 04:07:00;;;;;;;;;;;10.70;99.90;;;;;;5502168;25;19928;-59
2024/05/05 04:09:27;;;;;;;;;;;10.70;99.90;;;;;;5518617;26;20681;-57
2024/05/05 04:11:53;;;;;;;;;;;10.70;99.90;;;;;;5514065;26;19935;-58
2024/05/05 04:14:19;;;;;;;;;;;10.70;99.90;;;;;;5509737;26;19927;-59
2024/05/05 04:16:44;;;;;;;;;;;10.70;99.90;;;;;;5502745;25;19931;-58
2024/05/05 04:19:10;;;;;;;;;;;10.70;99.90;;;;;;5519176;26;19927;-57
2024/05/05 04:21:36;;;;;;;;;;;10.70;99.90;;;;;;5511387;26;20294;-57
2024/05/05 04:24:01;;;;;;;;;;;10.60;99.90;;;;;;5519334;26;19960;-59
2024/05/05 04:26:27;;;;;;;;;;;10.60;99.90;;;;;;5504041;25;20330;-59
2024/05/05 04:28:52;;;;;;;;;;;10.60;99.90;;;;;;5509690;25;19927;-58
2024/05/05 04:31:19;;;;;;;;;;;10.60;99.90;;;;;;5512054;26;19927;-57
2024/05/05 04:33:45;;;;;;;;;;;10.60;99.90;;;;;;5508000;26;19935;-57
2024/05/05 04:36:11;;;;;;;;;;;10.60;99.90;;;;;;5516300;26;19956;-58
2024/05/05 04:38:36;;;;;;;;;;;10.60;99.90;;;;;;5514478;25;19934;-58
2024/05/05 04:41:02;;;;;;;;;;;10.60;99.90;;;;;;5514364;26;19939;-57
2024/05/05 04:43:29;;;;;;;;;;;10.60;99.90;;;;;;5518386;25;19995;-58
2024/05/05 04:45:54;;;;;;;;;;;10.70;99.90;;;;;;5513765;26;19936;-58
2024/05/05 04:48:20;;;;;;;;;;;10.80;99.90;;;;;;5511159;26;19970;-59
2024/05/05 04:50:47;;;;;;;;;;;10.80;99.90;;;;;;5519193;25;20371;-58
2024/05/05 04:53:13;;;;;;;;;;;10.80;99.90;;;;;;5519669;26;19996;-59
2024/05/05 04:55:39;;;;;;;;;;;10.80;99.90;;;;;;5514420;26;20020;-59
2024/05/05 04:58:04;;;;;;;;;;;10.90;99.90;;;;;;5517158;25;19936;-58
2024/05/05 05:00:30;;;;;;;;;;;10.90;99.90;;;;;;5519939;26;19934;-59
2024/05/05 05:02:56;;;;;;;;;;;11.00;99.90;;;;;;5519351;26;19939;-59
2024/05/05 05:05:22;;;;;;;;;;;10.90;99.90;;;;;;5516289;25;19980;-59
2024/05/05 05:07:48;;;;;;;;;;;10.90;99.90;;;;;;5515591;26;19965;-58
2024/05/05 05:10:23;;;;;;;;;;;11.00;99.90;;;;;;5511128;26;19928;-59
2024/05/05 05:12:54;;;;;;;;;;;11.00;99.90;;;;;;5519636;26;20367;-59
2024/05/05 05:15:20;;;;;;;;;;;11.10;99.90;;;;;;5512961;25;20267;-59
2024/05/05 05:17:45;;;;;;;;;;;11.00;99.90;;;;;;5518428;26;19928;-59
2024/05/05 05:20:11;;;;;;;;;;;11.10;99.90;;;;;;5518450;26;19947;-59
2024/05/05 05:22:37;;;;;;;;;;;11.00;99.90;;;;;;5518599;25;19947;-59
2024/05/05 05:25:02;;;;;;;;;;;11.00;99.90;;;;;;5512037;26;20383;-59
2024/05/05 05:27:48;;;;;;;;;;;11.10;99.90;;;;;;5492138;26;19951;-59
2024/05/05 05:30:13;;;;;;;;;;;11.10;99.90;;;;;;5503043;26;19995;-59
2024/05/05 05:32:39;;;;;;;;;;;11.10;99.90;;;;;;5518167;25;20355;-59
2024/05/05 05:35:05;;;;;;;;;;;11.10;99.90;;;;;;5518305;26;19957;-59
2024/05/05 05:37:30;;;;;;;;;;;11.00;99.90;;;;;;5509485;26;20283;-58
2024/05/05 05:39:56;;;;;;;;;;;11.10;99.90;;;;;;5511864;26;19938;-59
2024/05/05 05:42:22;;;;;;;;;;;11.00;99.90;;;;;;5505029;25;20292;-59
2024/05/05 05:44:47;;;;;;;;;;;11.10;99.90;;;;;;5514466;26;19935;-58
2024/05/05 05:47:13;;;;;;;;;;;11.00;99.90;;;;;;5517442;26;19928;-59
2024/05/05 05:49:38;;;;;;;;;;;11.00;99.90;;;;;;5519091;25;19942;-59
2024/05/05 05:52:04;;;;;;;;;;;11.00;99.90;;;;;;5517413;26;19928;-59
2024/05/05 05:54:29;;;;;;;;;;;11.00;99.90;;;;;;5520663;26;19927;-59
2024/05/05 05:56:55;;;;;;;;;;;11.00;99.90;;;;;;5517992;25;19928;-57
2024/05/05 05:59:20;;;;;;;;;;;11.00;99.90;;;;;;5514130;26;19927;-58
2024/05/05 06:01:46;;;;;;;;;;;11.00;99.90;;;;;;5522509;26;20279;-59
2024/05/05 06:04:12;;;;;;;;;;;11.00;99.90;;;;;;5516016;26;19928;-58
2024/05/05 06:06:37;;;;;;;;;;;11.00;99.90;;;;;;5521668;25;19928;-59
2024/05/05 06:09:03;;;;;;;;;;;11.00;99.90;;;;;;5519452;26;19939;-58
2024/05/05 06:11:34;;;;;;;;;;;11.10;99.90;;;;;;5522371;26;19927;-58
2024/05/05 06:14:00;;;;;;;;;;;11.10;99.90;;;;;;5520875;25;19952;-58
2024/05/05 06:16:25;;;;;;;;;;;11.20;99.90;;;;;;5521532;26;19935;-58
2024/05/05 06:18:51;;;;;;;;;;;11.20;99.90;;;;;;5510843;26;19934;-59
2024/05/05 06:21:18;;;;;;;;;;;11.30;99.90;;;;;;5506869;26;20004;-59
2024/05/05 06:23:44;;;;;;;;;;;11.30;99.90;;;;;;5517470;25;20283;-59
2024/05/05 06:26:09;;;;;;;;;;;11.40;99.90;;;;;;5522806;26;19980;-59
2024/05/05 06:28:35;;;;;;;;;;;11.40;99.90;;;;;;5513997;26;19935;-59
2024/05/05 06:31:01;;;;;;;;;;;11.40;99.90;;;;;;5521386;25;19934;-59
2024/05/05 06:33:27;;;;;;;;;;;11.40;99.90;;;;;;5522692;26;19953;-59
2024/05/05 06:35:52;;;;;;;;;;;11.50;99.90;;;;;;5514297;26;20356;-59
2024/05/05 06:38:18;;;;;;;;;;;11.50;99.90;;;;;;5521005;25;19938;-59
2024/05/05 06:40:43;;;;;;;;;;;11.50;99.90;;;;;;5514574;26;19935;-59
2024/05/05 06:43:09;;;;;;;;;;;11.60;99.90;;;;;;5511099;25;20251;-59
2024/05/05 06:45:34;;;;;;;;;;;11.60;99.90;;;;;;5505711;26;19932;-59
2024/05/05 06:48:00;;;;;;;;;;;11.70;99.90;;;;;;5522418;26;20271;-59
2024/05/05 06:50:26;;;;;;;;;;;11.70;99.90;;;;;;5520097;25;19935;-59
2024/05/05 06:52:52;;;;;;;;;;;11.70;99.90;;;;;;5515735;26;20279;-59
2024/05/05 06:55:17;;;;;;;;;;;11.80;99.90;;;;;;5521731;26;19927;-59
2024/05/05 06:57:43;;;;;;;;;;;11.80;99.90;;;;;;5520427;25;19934;-58
2024/05/05 07:00:08;;;;;;;;;;;11.90;99.90;;;;;;5520740;26;20592;-59
2024/05/05 07:02:35;;;;;;;;;;;11.90;99.90;;;;;;5523054;26;19934;-59
2024/05/05 07:05:01;;;;;;;;;;;12.10;99.90;;;;;;5511351;25;19942;-58
2024/05/05 07:07:26;;;;;;;;;;;12.10;99.90;;;;;;5515264;26;19944;-59
2024/05/05 07:09:53;;;;;;;;;;;12.10;99.90;;;;;;5522303;26;19935;-58
2024/05/05 07:12:18;;;;;;;;;;;12.00;99.90;;;;;;5520852;25;20271;-59
2024/05/05 07:14:44;;;;;;;;;;;12.00;99.90;;;;;;5514864;26;19943;-59
2024/05/05 07:17:11;;;;;;;;;;;12.00;99.90;;;;;;5512176;26;19935;-60
2024/05/05 07:19:37;;;;;;;;;;;11.90;99.90;;;;;;5521334;26;19942;-58
2024/05/05 07:22:02;;;;;;;;;;;11.90;99.90;;;;;;5519933;25;19927;-59
2024/05/05 07:24:28;;;;;;;;;;;11.90;99.90;;;;;;5520026;26;19955;-58
2024/05/05 07:26:53;;;;;;;;;;;12.00;99.90;;;;;;5516239;26;19934;-59
2024/05/05 07:29:19;;;;;;;;;;;12.00;99.90;;;;;;5512662;26;19927;-58
2024/05/05 07:31:45;;;;;;;;;;;12.10;99.90;;;;;;5510510;25;19936;-57
2024/05/05 07:34:10;;;;;;;;;;;12.10;99.90;;;;;;5518352;26;19931;-57
2024/05/05 07:36:36;;;;;;;;;;;12.20;99.90;;;;;;5508097;25;19927;-58
2024/05/05 07:39:01;;;;;;;;;;;12.30;99.90;;;;;;5520458;26;19963;-58
2024/05/05 07:41:27;;;;;;;;;;;12.40;99.90;;;;;;5519657;25;19942;-58
2024/05/05 07:43:52;;;;;;;;;;;12.50;99.90;;;;;;5519968;26;19939;-58
2024/05/05 07:46:18;;;;;;;;;;;12.50;99.90;;;;;;5517016;26;20315;-58
2024/05/05 07:48:43;;;;;;;;;;;12.60;99.90;;;;;;5516299;26;19935;-58
2024/05/05 07:51:09;;;;;;;;;;;12.50;99.90;;;;;;5517561;25;19989;-58
2024/05/05 07:53:35;;;;;;;;;;;12.50;99.90;;;;;;5521291;26;19927;-57
2024/05/05 07:56:01;;;;;;;;;;;12.60;99.90;;;;;;5521947;26;19935;-58
2024/05/05 07:58:26;;;;;;;;;;;12.60;99.90;;;;;;5520628;26;19939;-58
2024/05/05 08:00:52;;;;;;;;;;;12.60;99.90;;;;;;5510263;25;20280;-58
2024/05/05 08:03:17;;;;;;;;;;;12.60;99.90;;;;;;5520311;26;19935;-58
2024/05/05 08:05:43;;;;;;;;;;;12.60;99.90;;;;;;5518599;26;19959;-59
2024/05/05 08:08:09;;;;;;;;;;;12.50;99.90;;;;;;5515681;26;19928;-59
2024/05/05 08:10:35;;;;;;;;;;;12.40;99.90;;;;;;5512698;25;20570;-58
2024/05/05 08:13:01;;;;;;;;;;;12.40;99.90;;;;;;5519733;26;19940;-59
2024/05/05 08:15:26;;;;;;;;;;;12.40;99.90;;;;;;5519086;26;19928;-59
2024/05/05 08:17:52;;;;;;;;;;;12.50;99.90;;;;;;5519829;25;19927;-59
2024/05/05 08:20:17;;;;;;;;;;;12.60;99.90;;;;;;5519906;26;19939;-59
2024/05/05 08:22:45;;;;;;;;;;;12.70;99.90;;;;;;5520731;26;19927;-58
2024/05/05 08:25:11;;;;;;;;;;;12.80;99.90;;;;;;5519968;26;19935;-59
2024/05/05 08:27:37;;;;;;;;;;;13.00;99.90;;;;;;5511154;25;20269;-58
2024/05/05 08:30:02;;;;;;;;;;;13.10;99.90;;;;;;5507096;26;20317;-59
2024/05/05 08:32:28;;;;;;;;;;;13.20;99.90;;;;;;5483475;26;19935;-59
2024/05/05 08:34:53;;;;;;;;;;;13.30;99.90;;;;;;5514591;25;20260;-59
2024/05/05 08:37:19;;;;;;;;;;;13.40;99.90;;;;;;5520658;26;20003;-58
2024/05/05 08:39:44;;;;;;;;;;;13.50;99.90;;;;;;5520885;26;19928;-59
2024/05/05 08:42:11;;;;;;;;;;;13.50;99.90;;;;;;5516462;25;19931;-59
2024/05/05 08:44:37;;;;;;;;;;;13.50;99.90;;;;;;5516530;26;19935;-57
2024/05/05 08:47:03;;;;;;;;;;;13.60;99.90;;;;;;5521695;26;19999;-59
2024/05/05 08:49:28;;;;;;;;;;;13.70;99.90;;;;;;5517801;26;19935;-58
2024/05/05 08:51:57;;;;;;;;;;;13.80;99.90;;;;;;5513029;25;19935;-59
2024/05/05 08:54:23;;;;;;;;;;;14.00;99.90;;;;;;5519925;26;19931;-59
2024/05/05 08:56:49;;;;;;;;;;;14.10;99.90;;;;;;5519494;26;19995;-59
2024/05/05 08:59:14;;;;;;;;;;;14.30;99.90;;;;;;5520403;26;19964;-59
2024/05/05 09:01:40;;;;;;;;;;;14.50;99.90;;;;;;5519731;25;20418;-58
2024/05/05 09:04:16;;;;;;;;;;;14.60;99.90;;;;;;5505048;26;20002;-59
2024/05/05 09:06:42;;;;;;;;;;;14.70;99.90;;;;;;5512514;26;19939;-59
2024/05/05 09:09:10;;;;;;;;;;;14.90;99.90;;;;;;5510093;25;19934;-60
2024/05/05 09:11:37;;;;;;;;;;;15.20;99.90;;;;;;5518890;25;20328;-59
2024/05/05 09:14:16;;;;;;;;;;;15.70;99.90;;;;;;5519948;26;19936;-60
2024/05/05 09:16:42;;;;;;;;;;;15.90;99.90;;;;;;5515960;26;19939;-60
2024/05/05 09:19:07;;;;;;;;;;;15.80;99.90;;;;;;5514863;25;20273;-60
2024/05/05 09:21:36;;;;;;;;;;;15.70;99.90;;;;;;5513639;26;19932;-59
2024/05/05 09:24:05;;;;;;;;;;;15.60;99.90;;;;;;5517141;26;19940;-60
2024/05/05 09:26:31;;;;;;;;;;;15.60;99.90;;;;;;5510571;26;19928;-60
2024/05/05 09:28:56;;;;;;;;;;;15.60;99.90;;;;;;5508850;25;20020;-60
2024/05/05 09:31:22;;;;;;;;;;;15.50;99.90;;;;;;5513404;26;19927;-60
2024/05/05 09:33:47;;;;;;;;;;;15.40;99.90;;;;;;5521280;26;19932;-60
2024/05/05 09:36:16;;;;;;;;;;;15.10;99.90;;;;;;5510245;25;19986;-59
2024/05/05 09:38:42;;;;;;;;;;;15.10;99.90;;;;;;5525348;26;19972;-59
2024/05/05 09:41:08;;;;;;;;;;;15.40;99.90;;;;;;5524490;26;19931;-60
2024/05/05 09:43:34;;;;;;;;;;;15.80;99.90;;;;;;5517183;25;19975;-58
2024/05/05 09:46:01;;;;;;;;;;;16.00;99.90;;;;;;5521565;26;19928;-60
2024/05/05 09:48:27;;;;;;;;;;;16.20;99.90;;;;;;5511911;26;19928;-60
2024/05/05 09:51:00;;;;;;;;;;;16.10;99.90;;;;;;5514907;26;19935;-60
2024/05/05 09:53:32;;;;;;;;;;;15.90;99.90;;;;;;5508609;25;19927;-60
2024/05/05 09:56:02;;;;;;;;;;;15.80;99.90;;;;;;5521715;26;19936;-61
2024/05/05 09:58:31;;;;;;;;;;;15.80;99.90;;;;;;5515934;26;20335;-61
2024/05/05 10:00:57;;;;;;;;;;;15.70;99.90;;;;;;5522656;25;19927;-59
2024/05/05 10:03:22;;;;;;;;;;;15.60;99.90;;;;;;5521106;26;19928;-61
2024/05/05 10:05:48;;;;;;;;;;;15.60;99.90;;;;;;5519253;25;20359;-60
2024/05/05 10:08:14;;;;;;;;;;;16.10;99.90;;;;;;5517865;26;19996;-60
2024/05/05 10:10:39;;;;;;;;;;;16.70;99.90;;;;;;5524882;26;20333;-60
2024/05/05 10:13:06;;;;;;;;;;;17.20;99.90;;;;;;5524075;25;20401;-61
2024/05/05 10:15:33;;;;;;;;;;;17.50;99.90;;;;;;5514102;26;19939;-60
2024/05/05 10:18:06;;;;;;;;;;;17.50;99.90;;;;;;5523344;26;19935;-61
2024/05/05 10:20:41;;;;;;;;;;;17.10;99.90;;;;;;5509996;25;19957;-61
2024/05/05 10:23:10;;;;;;;;;;;16.60;99.90;;;;;;5523019;26;19935;-61
2024/05/05 10:25:35;;;;;;;;;;;16.30;99.90;;;;;;5503673;25;19927;-61
2024/05/05 10:28:01;;;;;;;;;;;15.80;99.90;;;;;;5517013;26;20325;-61
2024/05/05 10:30:36;;;;;;;;;;;15.60;99.90;;;;;;5524849;26;19927;-61
2024/05/05 10:33:05;;;;;;;;;;;15.50;99.90;;;;;;5515160;25;19935;-60
2024/05/05 10:35:31;;;;;;;;;;;15.60;99.90;;;;;;5520263;26;19937;-60
2024/05/05 10:37:56;;;;;;;;;;;15.70;99.90;;;;;;5523311;26;20391;-59
2024/05/05 10:40:22;;;;;;;;;;;15.80;99.90;;;;;;5507616;26;19950;-60
2024/05/05 10:42:48;;;;;;;;;;;15.90;99.90;;;;;;5520119;25;19928;-61
2024/05/05 10:45:16;;;;;;;;;;;16.10;99.90;;;;;;5522611;26;19934;-61
2024/05/05 10:47:42;;;;;;;;;;;16.20;99.90;;;;;;5513774;25;20026;-61
2024/05/05 10:50:08;;;;;;;;;;;16.20;99.90;;;;;;5518832;26;20482;-61
2024/05/05 10:52:34;;;;;;;;;;;16.10;99.90;;;;;;5518450;26;19934;-61
2024/05/05 10:55:01;;;;;;;;;;;16.00;99.90;;;;;;5511685;25;19928;-60
2024/05/05 10:57:27;;;;;;;;;;;15.90;99.90;;;;;;5504075;25;19928;-60
2024/05/05 10:59:53;;;;;;;;;;;15.70;99.90;;;;;;5515720;25;19934;-60
2024/05/05 11:02:25;;;;;;;;;;;15.50;99.90;;;;;;5521122;25;20379;-61
2024/05/05 11:04:55;;;;;;;;;;;15.40;99.90;;;;;;5511686;26;20169;-60
2024/05/05 11:07:21;;;;;;;;;;;15.40;99.90;;;;;;5516130;25;19927;-61
2024/05/05 11:09:47;;;;;;;;;;;15.40;99.90;;;;;;5517886;26;19972;-61
2024/05/05 11:12:12;;;;;;;;;;;15.40;99.90;;;;;;5520033;25;19927;-61
2024/05/05 11:14:44;;;;;;;;;;;15.40;99.90;;;;;;5516786;26;19935;-61
2024/05/05 11:17:10;;;;;;;;;;;15.40;99.90;;;;;;5512933;26;20045;-59
2024/05/05 11:19:36;;;;;;;;;;;15.80;99.90;;;;;;5516445;26;19935;-61
2024/05/05 11:22:01;;;;;;;;;;;16.00;99.90;;;;;;5521973;25;19934;-61
2024/05/05 11:24:30;;;;;;;;;;;16.20;99.90;;;;;;5522168;26;19927;-61
2024/05/05 11:26:56;;;;;;;;;;;16.30;99.90;;;;;;5521245;26;19927;-60
2024/05/05 11:29:21;;;;;;;;;;;16.20;99.90;;;;;;5519444;25;19936;-61
2024/05/05 11:31:47;;;;;;;;;;;16.00;99.90;;;;;;5511260;26;19935;-61
2024/05/05 11:34:13;;;;;;;;;;;15.90;99.90;;;;;;5521780;25;20263;-61
2024/05/05 11:36:39;;;;;;;;;;;15.70;99.90;;;;;;5512971;26;19928;-62
2024/05/05 11:39:05;;;;;;;;;;;15.60;99.90;;;;;;5505135;26;19927;-62
2024/05/05 11:41:50;;;;;;;;;;;15.90;99.90;;;;;;5514482;25;19935;-62
2024/05/05 11:44:29;;;;;;;;;;;15.70;99.90;;;;;;5509439;25;19934;-62
2024/05/05 11:47:13;;;;;;;;;;;15.70;99.90;;;;;;5517913;26;19927;-62
2024/05/05 11:49:48;;;;;;;;;;;15.80;99.90;;;;;;5511952;26;19940;-62
2024/05/05 11:52:32;;;;;;;;;;;15.80;99.90;;;;;;5502764;25;19974;-62
2024/05/05 11:55:01;;;;;;;;;;;15.70;99.90;;;;;;5520918;26;19936;-61
2024/05/05 11:57:29;;;;;;;;;;;15.70;99.90;;;;;;5521304;26;19937;-62
2024/05/05 11:59:55;;;;;;;;;;;15.70;99.90;;;;;;5505428;25;19936;-62
2024/05/05 12:02:21;;;;;;;;;;;15.80;99.90;;;;;;5499608;26;19959;-61
2024/05/05 12:04:46;;;;;;;;;;;15.90;99.90;;;;;;5516545;26;19940;-62
2024/05/05 12:07:12;;;;;;;;;;;16.00;99.90;;;;;;5519168;25;20293;-62
2024/05/05 12:09:38;;;;;;;;;;;16.10;99.90;;;;;;5522376;26;19976;-62
2024/05/05 12:12:04;;;;;;;;;;;16.20;99.90;;;;;;5521617;26;19936;-63
2024/05/05 12:14:29;;;;;;;;;;;16.40;99.90;;;;;;5519864;25;19928;-62
2024/05/05 12:16:56;;;;;;;;;;;16.50;99.90;;;;;;5517777;26;19928;-63
2024/05/05 12:19:21;;;;;;;;;;;16.70;99.90;;;;;;5520841;26;19935;-62
2024/05/05 12:21:47;;;;;;;;;;;17.00;99.90;;;;;;5509394;25;19942;-62
2024/05/05 12:24:12;;;;;;;;;;;17.20;99.90;;;;;;5513955;26;19996;-63
2024/05/05 12:26:42;;;;;;;;;;;17.20;99.90;;;;;;5519488;26;19934;-62
2024/05/05 12:29:11;;;;;;;;;;;17.20;99.90;;;;;;5515035;26;19939;-62
2024/05/05 12:31:36;;;;;;;;;;;17.20;99.90;;;;;;5518941;25;19935;-62
2024/05/05 12:34:02;;;;;;;;;;;17.20;99.90;;;;;;5512255;26;20022;-62
2024/05/05 12:36:49;;;;;;;;;;;17.10;99.90;;;;;;5521324;26;20813;-62
2024/05/05 12:39:36;;;;;;;;;;;17.20;99.90;;;;;;5514527;26;19927;-63
2024/05/05 12:42:06;;;;;;;;;;;17.30;99.90;;;;;;5518479;25;19927;-63
2024/05/05 12:44:32;;;;;;;;;;;17.30;99.90;;;;;;5516053;25;19935;-63
2024/05/05 12:47:04;;;;;;;;;;;17.50;99.90;;;;;;5517447;26;19927;-62
2024/05/05 12:49:29;;;;;;;;;;;17.50;99.90;;;;;;5514480;26;19935;-62
2024/05/05 12:51:55;;;;;;;;;;;17.60;99.90;;;;;;5505135;25;19931;-63
2024/05/05 12:54:20;;;;;;;;;;;17.60;99.90;;;;;;5500925;26;19936;-62
2024/05/05 12:56:46;;;;;;;;;;;17.50;99.90;;;;;;5508508;26;20332;-63
2024/05/05 12:59:12;;;;;;;;;;;17.50;99.90;;;;;;5520867;26;20000;-61
2024/05/05 13:01:37;;;;;;;;;;;17.60;99.90;;;;;;5524544;25;20441;-62
2024/05/05 13:04:03;;;;;;;;;;;17.80;99.90;;;;;;5528572;26;19991;-62
2024/05/05 13:06:28;;;;;;;;;;;17.80;99.90;;;;;;5522471;26;19927;-63
2024/05/05 13:08:55;;;;;;;;;;;18.00;99.90;;;;;;5520207;25;20443;-62
2024/05/05 13:11:21;;;;;;;;;;;18.20;99.90;;;;;;5519138;26;19935;-63
2024/05/05 13:13:47;;;;;;;;;;;18.20;99.90;;;;;;5505946;26;19943;-62
2024/05/05 13:16:12;;;;;;;;;;;18.30;99.90;;;;;;5519885;26;19939;-62
2024/05/05 13:18:39;;;;;;;;;;;18.30;99.90;;;;;;5526774;25;20262;-63
2024/05/05 13:21:04;;;;;;;;;;;18.30;99.90;;;;;;5520584;26;19935;-63
2024/05/05 13:23:30;;;;;;;;;;;18.30;99.90;;;;;;5517831;26;20389;-63
2024/05/05 13:25:56;;;;;;;;;;;18.30;99.90;;;;;;5520754;26;19959;-63
2024/05/05 13:28:21;;;;;;;;;;;18.30;99.90;;;;;;5504804;25;19934;-62
2024/05/05 13:30:47;;;;;;;;;;;18.10;99.90;;;;;;5526198;26;19960;-63
2024/05/05 13:33:12;;;;;;;;;;;18.00;99.90;;;;;;5526428;25;19927;-62
2024/05/05 13:35:39;;;;;;;;;;;18.10;99.90;;;;;;5527426;26;20335;-63
2024/05/05 13:38:04;;;;;;;;;;;18.10;99.90;;;;;;5514020;26;19938;-63
2024/05/05 13:40:30;;;;;;;;;;;18.10;99.90;;;;;;5512585;25;20375;-63
2024/05/05 13:42:56;;;;;;;;;;;18.10;99.90;;;;;;5520214;25;19934;-62
2024/05/05 13:45:22;;;;;;;;;;;18.00;99.90;;;;;;5522648;26;19955;-63
2024/05/05 13:47:47;;;;;;;;;;;17.90;99.90;;;;;;5527133;26;19947;-63
2024/05/05 13:50:13;;;;;;;;;;;17.80;99.90;;;;;;5527110;26;19927;-63
2024/05/05 13:52:39;;;;;;;;;;;17.60;99.90;;;;;;5511661;25;19951;-64
2024/05/05 13:55:04;;;;;;;;;;;17.50;99.90;;;;;;5522383;26;20275;-63
2024/05/05 13:57:30;;;;;;;;;;;17.50;99.90;;;;;;5526473;26;19927;-62
2024/05/05 13:59:55;;;;;;;;;;;17.50;99.90;;;;;;5525269;26;19927;-62
2024/05/05 14:02:21;;;;;;;;;;;17.50;99.90;;;;;;5521063;25;19982;-63
2024/05/05 14:04:47;;;;;;;;;;;17.40;99.90;;;;;;5526603;26;19931;-61
2024/05/05 14:07:12;;;;;;;;;;;17.40;99.90;;;;;;5518203;26;19936;-63
2024/05/05 14:09:38;;;;;;;;;;;17.30;99.90;;;;;;5522376;25;20268;-64
2024/05/05 14:12:04;;;;;;;;;;;17.20;99.90;;;;;;5522045;26;19928;-64